sensor_id;sensor_type;location;lat;lon;timestamp;P1;durP1;ratioP1;P2;durP2;ratioP2
13706;SDS011;6925;47.816;13.072;2023-01-23T00:00:00;15.13;;;7.80;;
13706;SDS011;6925;47.816;13.072;2023-01-23T00:02:29;14.38;;;7.50;;
13706;SDS011;6925;47.816;13.072;2023-01-23T00:04:56;12.93;;;6.85;;
13706;SDS011;6925;47.816;13.072;2023-01-23T00:07:25;15.43;;;7.25;;
13706;SDS011;6925;47.816;13.072;2023-01-23T00:09:52;16.05;;;7.75;;
13706;SDS011;6925;47.816;13.072;2023-01-23T00:12:19;14.30;;;7.45;;
13706;SDS011;6925;47.816;13.072;2023-01-23T00:14:46;14.13;;;7.82;;
13706;SDS011;6925;47.816;13.072;2023-01-23T00:17:14;14.93;;;7.07;;
13706;SDS011;6925;47.816;13.072;2023-01-23T00:19:41;12.85;;;7.88;;
13706;SDS011;6925;47.816;13.072;2023-01-23T00:22:08;15.20;;;7.25;;
13706;SDS011;6925;47.816;13.072;2023-01-23T00:24:37;17.77;;;7.63;;
13706;SDS011;6925;47.816;13.072;2023-01-23T00:27:04;16.20;;;8.00;;
13706;SDS011;6925;47.816;13.072;2023-01-23T00:29:31;12.25;;;7.45;;
13706;SDS011;6925;47.816;13.072;2023-01-23T00:31:59;16.42;;;7.63;;
13706;SDS011;6925;47.816;13.072;2023-01-23T00:34:26;16.42;;;7.93;;
13706;SDS011;6925;47.816;13.072;2023-01-23T00:36:53;13.48;;;7.15;;
13706;SDS011;6925;47.816;13.072;2023-01-23T00:39:21;16.42;;;7.60;;
13706;SDS011;6925;47.816;13.072;2023-01-23T00:41:49;15.02;;;7.60;;
13706;SDS011;6925;47.816;13.072;2023-01-23T00:44:17;13.32;;;7.53;;
13706;SDS011;6925;47.816;13.072;2023-01-23T00:46:44;16.45;;;8.65;;
13706;SDS011;6925;47.816;13.072;2023-01-23T00:49:11;16.98;;;8.32;;
13706;SDS011;6925;47.816;13.072;2023-01-23T00:51:41;12.93;;;7.93;;
13706;SDS011;6925;47.816;13.072;2023-01-23T00:54:09;16.45;;;8.30;;
13706;SDS011;6925;47.816;13.072;2023-01-23T00:56:36;17.85;;;7.95;;
13706;SDS011;6925;47.816;13.072;2023-01-23T00:59:05;12.32;;;6.93;;
13706;SDS011;6925;47.816;13.072;2023-01-23T01:01:32;14.25;;;7.95;;
13706;SDS011;6925;47.816;13.072;2023-01-23T01:03:59;13.13;;;7.47;;
13706;SDS011;6925;47.816;13.072;2023-01-23T01:06:27;14.05;;;7.68;;
13706;SDS011;6925;47.816;13.072;2023-01-23T01:08:55;21.02;;;8.20;;
13706;SDS011;6925;47.816;13.072;2023-01-23T01:11:22;15.13;;;7.97;;
13706;SDS011;6925;47.816;13.072;2023-01-23T01:13:50;14.05;;;6.75;;
13706;SDS011;6925;47.816;13.072;2023-01-23T01:19:00;14.18;;;6.82;;
13706;SDS011;6925;47.816;13.072;2023-01-23T01:21:30;13.20;;;7.13;;
13706;SDS011;6925;47.816;13.072;2023-01-23T01:23:58;13.70;;;7.50;;
13706;SDS011;6925;47.816;13.072;2023-01-23T01:26:25;12.18;;;6.35;;
13706;SDS011;6925;47.816;13.072;2023-01-23T01:28:52;15.57;;;6.75;;
13706;SDS011;6925;47.816;13.072;2023-01-23T01:31:21;12.82;;;6.93;;
13706;SDS011;6925;47.816;13.072;2023-01-23T01:33:49;16.23;;;8.45;;
13706;SDS011;6925;47.816;13.072;2023-01-23T01:36:17;15.77;;;7.28;;
13706;SDS011;6925;47.816;13.072;2023-01-23T01:38:46;15.38;;;7.22;;
13706;SDS011;6925;47.816;13.072;2023-01-23T01:41:14;17.33;;;7.50;;
13706;SDS011;6925;47.816;13.072;2023-01-23T01:43:42;13.05;;;6.78;;
13706;SDS011;6925;47.816;13.072;2023-01-23T01:46:14;15.82;;;7.50;;
13706;SDS011;6925;47.816;13.072;2023-01-23T01:48:47;11.90;;;6.68;;
13706;SDS011;6925;47.816;13.072;2023-01-23T01:51:26;14.75;;;7.18;;
13706;SDS011;6925;47.816;13.072;2023-01-23T01:53:59;15.93;;;7.50;;
13706;SDS011;6925;47.816;13.072;2023-01-23T01:56:31;16.17;;;7.68;;
13706;SDS011;6925;47.816;13.072;2023-01-23T01:59:03;14.07;;;7.63;;
13706;SDS011;6925;47.816;13.072;2023-01-23T02:01:31;14.63;;;7.03;;
13706;SDS011;6925;47.816;13.072;2023-01-23T02:04:00;14.18;;;7.43;;
13706;SDS011;6925;47.816;13.072;2023-01-23T02:06:28;13.60;;;7.13;;
13706;SDS011;6925;47.816;13.072;2023-01-23T02:08:57;15.18;;;7.25;;
13706;SDS011;6925;47.816;13.072;2023-01-23T02:11:29;14.40;;;7.18;;
13706;SDS011;6925;47.816;13.072;2023-01-23T02:13:57;15.05;;;7.63;;
13706;SDS011;6925;47.816;13.072;2023-01-23T02:16:25;12.57;;;7.20;;
13706;SDS011;6925;47.816;13.072;2023-01-23T02:18:56;12.68;;;7.22;;
13706;SDS011;6925;47.816;13.072;2023-01-23T02:21:27;14.40;;;7.72;;
13706;SDS011;6925;47.816;13.072;2023-01-23T02:23:58;15.95;;;8.00;;
13706;SDS011;6925;47.816;13.072;2023-01-23T02:26:39;16.27;;;7.80;;
13706;SDS011;6925;47.816;13.072;2023-01-23T02:29:08;16.65;;;7.50;;
13706;SDS011;6925;47.816;13.072;2023-01-23T02:31:36;15.20;;;7.65;;
13706;SDS011;6925;47.816;13.072;2023-01-23T02:34:08;15.40;;;7.80;;
13706;SDS011;6925;47.816;13.072;2023-01-23T02:36:37;17.05;;;8.13;;
13706;SDS011;6925;47.816;13.072;2023-01-23T02:39:07;14.50;;;7.65;;
13706;SDS011;6925;47.816;13.072;2023-01-23T02:41:39;16.15;;;8.38;;
13706;SDS011;6925;47.816;13.072;2023-01-23T02:44:09;15.93;;;7.82;;
13706;SDS011;6925;47.816;13.072;2023-01-23T02:46:38;13.73;;;7.85;;
13706;SDS011;6925;47.816;13.072;2023-01-23T02:49:05;15.13;;;6.97;;
13706;SDS011;6925;47.816;13.072;2023-01-23T02:51:33;14.70;;;7.72;;
13706;SDS011;6925;47.816;13.072;2023-01-23T02:54:00;15.25;;;7.85;;
13706;SDS011;6925;47.816;13.072;2023-01-23T02:56:28;14.60;;;8.05;;
13706;SDS011;6925;47.816;13.072;2023-01-23T02:58:57;15.88;;;7.80;;
13706;SDS011;6925;47.816;13.072;2023-01-23T03:01:41;13.05;;;6.85;;
13706;SDS011;6925;47.816;13.072;2023-01-23T03:04:09;12.75;;;6.47;;
13706;SDS011;6925;47.816;13.072;2023-01-23T03:06:36;14.68;;;7.80;;
13706;SDS011;6925;47.816;13.072;2023-01-23T03:09:04;13.82;;;6.85;;
13706;SDS011;6925;47.816;13.072;2023-01-23T03:11:34;12.35;;;7.22;;
13706;SDS011;6925;47.816;13.072;2023-01-23T03:14:06;12.82;;;7.13;;
13706;SDS011;6925;47.816;13.072;2023-01-23T03:16:35;15.25;;;7.53;;
13706;SDS011;6925;47.816;13.072;2023-01-23T03:19:03;12.13;;;7.00;;
13706;SDS011;6925;47.816;13.072;2023-01-23T03:21:38;12.57;;;6.32;;
13706;SDS011;6925;47.816;13.072;2023-01-23T03:24:06;12.77;;;7.18;;
13706;SDS011;6925;47.816;13.072;2023-01-23T03:26:36;14.10;;;7.40;;
13706;SDS011;6925;47.816;13.072;2023-01-23T03:29:07;16.60;;;8.23;;
13706;SDS011;6925;47.816;13.072;2023-01-23T03:31:56;15.85;;;7.88;;
13706;SDS011;6925;47.816;13.072;2023-01-23T03:34:23;15.73;;;8.13;;
13706;SDS011;6925;47.816;13.072;2023-01-23T03:36:51;19.58;;;8.55;;
13706;SDS011;6925;47.816;13.072;2023-01-23T03:39:18;17.60;;;8.88;;
13706;SDS011;6925;47.816;13.072;2023-01-23T03:42:03;16.60;;;8.82;;
13706;SDS011;6925;47.816;13.072;2023-01-23T03:44:31;16.77;;;8.05;;
13706;SDS011;6925;47.816;13.072;2023-01-23T03:46:59;14.90;;;7.40;;
13706;SDS011;6925;47.816;13.072;2023-01-23T05:44:23;14.90;;;8.23;;
13706;SDS011;6925;47.816;13.072;2023-01-23T05:46:51;14.65;;;7.50;;
13706;SDS011;6925;47.816;13.072;2023-01-23T05:49:18;15.98;;;8.63;;
13706;SDS011;6925;47.816;13.072;2023-01-23T05:51:48;14.85;;;7.97;;
13706;SDS011;6925;47.816;13.072;2023-01-23T05:54:17;15.32;;;7.82;;
13706;SDS011;6925;47.816;13.072;2023-01-23T05:56:48;15.73;;;8.45;;
13706;SDS011;6925;47.816;13.072;2023-01-23T05:59:15;18.13;;;8.63;;
13706;SDS011;6925;47.816;13.072;2023-01-23T06:01:44;15.77;;;8.15;;
13706;SDS011;6925;47.816;13.072;2023-01-23T06:04:15;16.98;;;8.63;;
13706;SDS011;6925;47.816;13.072;2023-01-23T06:06:43;15.57;;;8.27;;
13706;SDS011;6925;47.816;13.072;2023-01-23T06:09:10;15.20;;;8.63;;
13706;SDS011;6925;47.816;13.072;2023-01-23T06:11:38;16.33;;;9.13;;
13706;SDS011;6925;47.816;13.072;2023-01-23T06:14:05;18.00;;;9.15;;
13706;SDS011;6925;47.816;13.072;2023-01-23T06:16:32;15.82;;;8.77;;
13706;SDS011;6925;47.816;13.072;2023-01-23T06:19:01;14.88;;;8.52;;
13706;SDS011;6925;47.816;13.072;2023-01-23T06:21:28;16.65;;;8.40;;
13706;SDS011;6925;47.816;13.072;2023-01-23T06:23:57;19.23;;;9.90;;
13706;SDS011;6925;47.816;13.072;2023-01-23T06:26:24;20.77;;;9.10;;
13706;SDS011;6925;47.816;13.072;2023-01-23T06:28:51;20.67;;;9.23;;
13706;SDS011;6925;47.816;13.072;2023-01-23T06:31:19;15.82;;;8.63;;
13706;SDS011;6925;47.816;13.072;2023-01-23T06:33:48;14.50;;;8.35;;
13706;SDS011;6925;47.816;13.072;2023-01-23T06:36:17;17.05;;;7.82;;
13706;SDS011;6925;47.816;13.072;2023-01-23T06:38:44;15.25;;;8.50;;
13706;SDS011;6925;47.816;13.072;2023-01-23T06:41:12;15.57;;;7.57;;
13706;SDS011;6925;47.816;13.072;2023-01-23T06:43:39;15.73;;;8.18;;
13706;SDS011;6925;47.816;13.072;2023-01-23T06:46:07;16.15;;;8.55;;
13706;SDS011;6925;47.816;13.072;2023-01-23T06:51:01;16.00;;;7.45;;
13706;SDS011;6925;47.816;13.072;2023-01-23T06:53:31;17.58;;;8.45;;
13706;SDS011;6925;47.816;13.072;2023-01-23T06:55:58;13.75;;;8.50;;
13706;SDS011;6925;47.816;13.072;2023-01-23T07:00:54;15.07;;;7.68;;
13706;SDS011;6925;47.816;13.072;2023-01-23T07:03:21;12.85;;;7.65;;
13706;SDS011;6925;47.816;13.072;2023-01-23T07:05:49;16.50;;;9.45;;
13706;SDS011;6925;47.816;13.072;2023-01-23T07:08:16;15.35;;;7.85;;
13706;SDS011;6925;47.816;13.072;2023-01-23T07:10:45;16.45;;;8.35;;
13706;SDS011;6925;47.816;13.072;2023-01-23T07:13:15;18.63;;;8.82;;
13706;SDS011;6925;47.816;13.072;2023-01-23T07:15:45;17.48;;;9.50;;
13706;SDS011;6925;47.816;13.072;2023-01-23T07:18:12;40.22;;;16.55;;
13706;SDS011;6925;47.816;13.072;2023-01-23T07:20:42;17.83;;;9.48;;
13706;SDS011;6925;47.816;13.072;2023-01-23T07:23:09;17.52;;;8.73;;
13706;SDS011;6925;47.816;13.072;2023-01-23T07:25:37;18.35;;;9.27;;
13706;SDS011;6925;47.816;13.072;2023-01-23T07:28:05;16.30;;;8.20;;
13706;SDS011;6925;47.816;13.072;2023-01-23T07:30:33;17.85;;;8.73;;
13706;SDS011;6925;47.816;13.072;2023-01-23T07:33:00;18.88;;;8.65;;
13706;SDS011;6925;47.816;13.072;2023-01-23T07:35:27;20.38;;;9.00;;
13706;SDS011;6925;47.816;13.072;2023-01-23T07:37:55;17.27;;;8.68;;
13706;SDS011;6925;47.816;13.072;2023-01-23T07:40:22;18.33;;;9.23;;
13706;SDS011;6925;47.816;13.072;2023-01-23T07:42:49;16.58;;;8.70;;
13706;SDS011;6925;47.816;13.072;2023-01-23T07:45:20;15.52;;;8.20;;
13706;SDS011;6925;47.816;13.072;2023-01-23T07:47:47;16.23;;;8.85;;
13706;SDS011;6925;47.816;13.072;2023-01-23T07:50:14;19.15;;;8.95;;
13706;SDS011;6925;47.816;13.072;2023-01-23T07:52:44;19.08;;;10.45;;
13706;SDS011;6925;47.816;13.072;2023-01-23T07:55:11;16.92;;;7.90;;
13706;SDS011;6925;47.816;13.072;2023-01-23T07:57:39;15.55;;;8.77;;
13706;SDS011;6925;47.816;13.072;2023-01-23T08:00:07;18.23;;;8.98;;
13706;SDS011;6925;47.816;13.072;2023-01-23T08:02:37;21.63;;;10.63;;
13706;SDS011;6925;47.816;13.072;2023-01-23T08:05:05;17.95;;;9.18;;
13706;SDS011;6925;47.816;13.072;2023-01-23T08:07:33;14.80;;;9.07;;
13706;SDS011;6925;47.816;13.072;2023-01-23T08:10:00;18.65;;;8.75;;
13706;SDS011;6925;47.816;13.072;2023-01-23T08:12:27;19.55;;;10.30;;
13706;SDS011;6925;47.816;13.072;2023-01-23T08:14:54;18.38;;;8.75;;
13706;SDS011;6925;47.816;13.072;2023-01-23T08:17:22;19.75;;;10.10;;
13706;SDS011;6925;47.816;13.072;2023-01-23T08:19:50;19.40;;;10.07;;
13706;SDS011;6925;47.816;13.072;2023-01-23T08:22:17;19.20;;;9.30;;
13706;SDS011;6925;47.816;13.072;2023-01-23T08:24:45;18.55;;;9.93;;
13706;SDS011;6925;47.816;13.072;2023-01-23T08:27:12;19.33;;;10.57;;
13706;SDS011;6925;47.816;13.072;2023-01-23T08:29:39;21.67;;;10.43;;
13706;SDS011;6925;47.816;13.072;2023-01-23T08:32:07;20.92;;;10.43;;
13706;SDS011;6925;47.816;13.072;2023-01-23T08:34:34;21.45;;;11.63;;
13706;SDS011;6925;47.816;13.072;2023-01-23T08:37:03;22.40;;;11.02;;
13706;SDS011;6925;47.816;13.072;2023-01-23T08:39:30;26.58;;;12.15;;
13706;SDS011;6925;47.816;13.072;2023-01-23T08:41:57;21.30;;;11.10;;
13706;SDS011;6925;47.816;13.072;2023-01-23T08:44:24;20.60;;;10.48;;
13706;SDS011;6925;47.816;13.072;2023-01-23T08:46:55;17.48;;;10.05;;
13706;SDS011;6925;47.816;13.072;2023-01-23T08:49:22;19.15;;;10.13;;
13706;SDS011;6925;47.816;13.072;2023-01-23T08:51:49;18.63;;;10.50;;
13706;SDS011;6925;47.816;13.072;2023-01-23T08:54:18;17.83;;;9.30;;
13706;SDS011;6925;47.816;13.072;2023-01-23T08:56:45;19.27;;;10.50;;
13706;SDS011;6925;47.816;13.072;2023-01-23T08:59:12;23.58;;;10.52;;
13706;SDS011;6925;47.816;13.072;2023-01-23T09:01:40;17.83;;;10.25;;
13706;SDS011;6925;47.816;13.072;2023-01-23T09:04:07;19.73;;;9.98;;
13706;SDS011;6925;47.816;13.072;2023-01-23T09:06:34;22.55;;;10.32;;
13706;SDS011;6925;47.816;13.072;2023-01-23T09:09:02;20.20;;;10.48;;
13706;SDS011;6925;47.816;13.072;2023-01-23T09:11:30;19.67;;;10.50;;
13706;SDS011;6925;47.816;13.072;2023-01-23T09:13:57;18.05;;;9.38;;
13706;SDS011;6925;47.816;13.072;2023-01-23T09:16:25;16.92;;;9.27;;
13706;SDS011;6925;47.816;13.072;2023-01-23T09:18:54;20.33;;;11.05;;
13706;SDS011;6925;47.816;13.072;2023-01-23T09:21:22;21.40;;;9.98;;
13706;SDS011;6925;47.816;13.072;2023-01-23T09:23:49;20.90;;;10.13;;
13706;SDS011;6925;47.816;13.072;2023-01-23T09:26:16;21.08;;;9.95;;
13706;SDS011;6925;47.816;13.072;2023-01-23T09:28:45;19.85;;;10.85;;
13706;SDS011;6925;47.816;13.072;2023-01-23T09:31:13;24.02;;;9.88;;
13706;SDS011;6925;47.816;13.072;2023-01-23T09:33:41;17.00;;;10.43;;
13706;SDS011;6925;47.816;13.072;2023-01-23T09:36:08;15.63;;;9.55;;
13706;SDS011;6925;47.816;13.072;2023-01-23T09:41:09;17.73;;;10.15;;
13706;SDS011;6925;47.816;13.072;2023-01-23T09:43:43;21.10;;;9.82;;
13706;SDS011;6925;47.816;13.072;2023-01-23T09:46:17;17.00;;;9.75;;
13706;SDS011;6925;47.816;13.072;2023-01-23T09:48:50;20.02;;;10.13;;
13706;SDS011;6925;47.816;13.072;2023-01-23T09:51:24;19.63;;;9.13;;
13706;SDS011;6925;47.816;13.072;2023-01-23T09:53:54;16.65;;;8.73;;
13706;SDS011;6925;47.816;13.072;2023-01-23T09:56:28;15.93;;;9.45;;
13706;SDS011;6925;47.816;13.072;2023-01-23T09:59:07;17.73;;;9.60;;
13706;SDS011;6925;47.816;13.072;2023-01-23T10:01:39;18.52;;;9.65;;
13706;SDS011;6925;47.816;13.072;2023-01-23T10:04:08;20.75;;;10.70;;
13706;SDS011;6925;47.816;13.072;2023-01-23T10:06:44;17.23;;;10.07;;
13706;SDS011;6925;47.816;13.072;2023-01-23T10:09:40;18.33;;;9.70;;
13706;SDS011;6925;47.816;13.072;2023-01-23T10:12:22;19.98;;;10.32;;
13706;SDS011;6925;47.816;13.072;2023-01-23T10:15:13;18.25;;;10.13;;
13706;SDS011;6925;47.816;13.072;2023-01-23T10:17:47;19.98;;;9.77;;
13706;SDS011;6925;47.816;13.072;2023-01-23T10:20:25;20.45;;;8.70;;
13706;SDS011;6925;47.816;13.072;2023-01-23T10:23:10;18.35;;;8.73;;
13706;SDS011;6925;47.816;13.072;2023-01-23T10:25:47;19.15;;;9.43;;
13706;SDS011;6925;47.816;13.072;2023-01-23T10:28:17;17.75;;;9.85;;
13706;SDS011;6925;47.816;13.072;2023-01-23T10:30:56;18.70;;;10.18;;
13706;SDS011;6925;47.816;13.072;2023-01-23T10:33:29;17.63;;;9.85;;
13706;SDS011;6925;47.816;13.072;2023-01-23T10:36:04;19.13;;;9.27;;
13706;SDS011;6925;47.816;13.072;2023-01-23T10:38:42;16.80;;;8.82;;
13706;SDS011;6925;47.816;13.072;2023-01-23T10:41:14;19.23;;;9.90;;
13706;SDS011;6925;47.816;13.072;2023-01-23T10:43:45;20.90;;;9.55;;
13706;SDS011;6925;47.816;13.072;2023-01-23T10:46:16;19.40;;;11.13;;
13706;SDS011;6925;47.816;13.072;2023-01-23T10:48:46;21.65;;;11.63;;
13706;SDS011;6925;47.816;13.072;2023-01-23T10:51:28;20.85;;;11.15;;
13706;SDS011;6925;47.816;13.072;2023-01-23T10:54:04;22.05;;;12.25;;
13706;SDS011;6925;47.816;13.072;2023-01-23T10:56:36;23.45;;;11.93;;
13706;SDS011;6925;47.816;13.072;2023-01-23T10:59:21;18.30;;;10.30;;
13706;SDS011;6925;47.816;13.072;2023-01-23T11:01:55;20.95;;;11.65;;
13706;SDS011;6925;47.816;13.072;2023-01-23T11:04:25;19.20;;;11.00;;
13706;SDS011;6925;47.816;13.072;2023-01-23T11:07:06;20.15;;;10.35;;
13706;SDS011;6925;47.816;13.072;2023-01-23T11:09:47;24.50;;;12.52;;
13706;SDS011;6925;47.816;13.072;2023-01-23T11:12:18;19.95;;;10.23;;
13706;SDS011;6925;47.816;13.072;2023-01-23T11:14:46;23.00;;;11.25;;
13706;SDS011;6925;47.816;13.072;2023-01-23T11:17:19;19.00;;;10.70;;
13706;SDS011;6925;47.816;13.072;2023-01-23T11:19:49;21.23;;;11.68;;
13706;SDS011;6925;47.816;13.072;2023-01-23T11:22:30;27.42;;;11.88;;
13706;SDS011;6925;47.816;13.072;2023-01-23T11:25:12;22.52;;;12.05;;
13706;SDS011;6925;47.816;13.072;2023-01-23T11:27:55;22.02;;;11.57;;
13706;SDS011;6925;47.816;13.072;2023-01-23T11:30:34;21.38;;;11.68;;
13706;SDS011;6925;47.816;13.072;2023-01-23T11:33:16;19.50;;;10.55;;
13706;SDS011;6925;47.816;13.072;2023-01-23T11:35:58;21.27;;;11.35;;
13706;SDS011;6925;47.816;13.072;2023-01-23T11:38:30;25.02;;;12.15;;
13706;SDS011;6925;47.816;13.072;2023-01-23T11:41:04;22.33;;;11.20;;
13706;SDS011;6925;47.816;13.072;2023-01-23T11:43:36;22.00;;;12.30;;
13706;SDS011;6925;47.816;13.072;2023-01-23T11:46:11;22.65;;;11.15;;
13706;SDS011;6925;47.816;13.072;2023-01-23T11:48:57;23.40;;;12.43;;
13706;SDS011;6925;47.816;13.072;2023-01-23T11:51:36;24.55;;;12.60;;
13706;SDS011;6925;47.816;13.072;2023-01-23T11:54:13;22.42;;;11.10;;
13706;SDS011;6925;47.816;13.072;2023-01-23T11:57:08;21.95;;;12.05;;
13706;SDS011;6925;47.816;13.072;2023-01-23T11:59:44;22.65;;;11.70;;
13706;SDS011;6925;47.816;13.072;2023-01-23T12:02:30;24.45;;;13.52;;
13706;SDS011;6925;47.816;13.072;2023-01-23T12:05:35;22.48;;;11.07;;
13706;SDS011;6925;47.816;13.072;2023-01-23T12:08:35;25.50;;;12.90;;
13706;SDS011;6925;47.816;13.072;2023-01-23T12:11:11;23.23;;;11.85;;
13706;SDS011;6925;47.816;13.072;2023-01-23T12:16:43;23.52;;;12.50;;
13706;SDS011;6925;47.816;13.072;2023-01-23T12:19:38;21.60;;;10.65;;
13706;SDS011;6925;47.816;13.072;2023-01-23T12:22:26;25.25;;;12.00;;
13706;SDS011;6925;47.816;13.072;2023-01-23T12:25:04;23.08;;;13.18;;
13706;SDS011;6925;47.816;13.072;2023-01-23T12:27:44;24.48;;;13.32;;
13706;SDS011;6925;47.816;13.072;2023-01-23T12:33:19;27.50;;;13.40;;
13706;SDS011;6925;47.816;13.072;2023-01-23T12:36:12;25.10;;;12.82;;
13706;SDS011;6925;47.816;13.072;2023-01-23T12:38:49;26.90;;;14.48;;
13706;SDS011;6925;47.816;13.072;2023-01-23T12:41:26;26.95;;;14.10;;
13706;SDS011;6925;47.816;13.072;2023-01-23T12:44:00;25.92;;;13.50;;
13706;SDS011;6925;47.816;13.072;2023-01-23T12:46:38;29.85;;;15.27;;
13706;SDS011;6925;47.816;13.072;2023-01-23T12:49:15;23.42;;;14.57;;
13706;SDS011;6925;47.816;13.072;2023-01-23T12:51:49;27.73;;;14.27;;
13706;SDS011;6925;47.816;13.072;2023-01-23T12:54:27;28.13;;;14.95;;
13706;SDS011;6925;47.816;13.072;2023-01-23T12:57:00;30.10;;;15.48;;
13706;SDS011;6925;47.816;13.072;2023-01-23T12:59:31;30.88;;;16.25;;
13706;SDS011;6925;47.816;13.072;2023-01-23T13:02:09;30.08;;;14.88;;
13706;SDS011;6925;47.816;13.072;2023-01-23T13:04:45;29.52;;;14.90;;
13706;SDS011;6925;47.816;13.072;2023-01-23T13:07:23;37.70;;;17.40;;
13706;SDS011;6925;47.816;13.072;2023-01-23T13:10:10;31.25;;;16.30;;
13706;SDS011;6925;47.816;13.072;2023-01-23T13:13:15;32.15;;;16.05;;
13706;SDS011;6925;47.816;13.072;2023-01-23T13:15:43;31.85;;;15.80;;
13706;SDS011;6925;47.816;13.072;2023-01-23T13:18:27;33.80;;;15.32;;
13706;SDS011;6925;47.816;13.072;2023-01-23T13:21:15;32.40;;;16.88;;
13706;SDS011;6925;47.816;13.072;2023-01-23T13:24:11;29.33;;;15.48;;
13706;SDS011;6925;47.816;13.072;2023-01-23T13:36:34;33.85;;;15.95;;
13706;SDS011;6925;47.816;13.072;2023-01-23T13:45:22;41.17;;;19.35;;
13706;SDS011;6925;47.816;13.072;2023-01-23T13:51:23;36.65;;;19.25;;
13706;SDS011;6925;47.816;13.072;2023-01-23T13:53:51;43.10;;;20.23;;
13706;SDS011;6925;47.816;13.072;2023-01-23T13:56:37;48.90;;;22.48;;
13706;SDS011;6925;47.816;13.072;2023-01-23T13:59:15;45.30;;;22.30;;
13706;SDS011;6925;47.816;13.072;2023-01-23T14:01:53;46.50;;;20.92;;
13706;SDS011;6925;47.816;13.072;2023-01-23T14:04:49;43.58;;;20.33;;
13706;SDS011;6925;47.816;13.072;2023-01-23T14:07:38;40.88;;;20.25;;
13706;SDS011;6925;47.816;13.072;2023-01-23T14:10:15;40.28;;;19.98;;
13706;SDS011;6925;47.816;13.072;2023-01-23T14:12:45;38.90;;;19.67;;
13706;SDS011;6925;47.816;13.072;2023-01-23T14:15:17;40.35;;;19.58;;
13706;SDS011;6925;47.816;13.072;2023-01-23T14:18:10;35.55;;;18.27;;
13706;SDS011;6925;47.816;13.072;2023-01-23T14:20:43;32.40;;;18.17;;
13706;SDS011;6925;47.816;13.072;2023-01-23T14:23:15;38.33;;;18.02;;
13706;SDS011;6925;47.816;13.072;2023-01-23T14:25:46;33.25;;;17.02;;
13706;SDS011;6925;47.816;13.072;2023-01-23T14:30:46;30.13;;;14.30;;
13706;SDS011;6925;47.816;13.072;2023-01-23T14:33:20;32.92;;;14.20;;
13706;SDS011;6925;47.816;13.072;2023-01-23T14:35:48;32.58;;;14.55;;
13706;SDS011;6925;47.816;13.072;2023-01-23T14:38:19;32.45;;;16.55;;
13706;SDS011;6925;47.816;13.072;2023-01-23T14:40:52;32.95;;;16.05;;
13706;SDS011;6925;47.816;13.072;2023-01-23T14:43:20;34.83;;;16.80;;
13706;SDS011;6925;47.816;13.072;2023-01-23T14:45:51;35.45;;;18.63;;
13706;SDS011;6925;47.816;13.072;2023-01-23T14:48:26;33.65;;;16.75;;
13706;SDS011;6925;47.816;13.072;2023-01-23T14:51:00;32.83;;;16.38;;
13706;SDS011;6925;47.816;13.072;2023-01-23T14:53:30;35.88;;;17.25;;
13706;SDS011;6925;47.816;13.072;2023-01-23T14:55:57;34.22;;;17.67;;
13706;SDS011;6925;47.816;13.072;2023-01-23T14:58:26;36.03;;;17.33;;
13706;SDS011;6925;47.816;13.072;2023-01-23T15:00:54;33.70;;;17.38;;
13706;SDS011;6925;47.816;13.072;2023-01-23T15:03:40;34.75;;;17.02;;
13706;SDS011;6925;47.816;13.072;2023-01-23T15:06:11;36.20;;;17.00;;
13706;SDS011;6925;47.816;13.072;2023-01-23T15:08:40;38.00;;;16.95;;
13706;SDS011;6925;47.816;13.072;2023-01-23T15:11:09;48.42;;;28.40;;
13706;SDS011;6925;47.816;13.072;2023-01-23T15:13:41;44.17;;;25.08;;
13706;SDS011;6925;47.816;13.072;2023-01-23T15:16:18;33.70;;;16.63;;
13706;SDS011;6925;47.816;13.072;2023-01-23T15:18:53;38.40;;;16.33;;
13706;SDS011;6925;47.816;13.072;2023-01-23T15:21:26;40.50;;;17.25;;
13706;SDS011;6925;47.816;13.072;2023-01-23T15:23:59;34.78;;;17.23;;
13706;SDS011;6925;47.816;13.072;2023-01-23T15:26:57;33.22;;;17.25;;
13706;SDS011;6925;47.816;13.072;2023-01-23T15:29:27;40.40;;;18.70;;
13706;SDS011;6925;47.816;13.072;2023-01-23T15:31:55;39.35;;;19.40;;
13706;SDS011;6925;47.816;13.072;2023-01-23T15:34:28;39.05;;;19.63;;
13706;SDS011;6925;47.816;13.072;2023-01-23T15:36:59;41.80;;;19.15;;
13706;SDS011;6925;47.816;13.072;2023-01-23T15:39:34;45.72;;;20.98;;
13706;SDS011;6925;47.816;13.072;2023-01-23T15:42:20;37.20;;;18.90;;
13706;SDS011;6925;47.816;13.072;2023-01-23T15:44:51;39.85;;;17.67;;
13706;SDS011;6925;47.816;13.072;2023-01-23T15:47:19;41.80;;;20.13;;
13706;SDS011;6925;47.816;13.072;2023-01-23T15:49:48;38.53;;;19.50;;
13706;SDS011;6925;47.816;13.072;2023-01-23T15:52:16;36.28;;;18.30;;
13706;SDS011;6925;47.816;13.072;2023-01-23T15:54:46;37.40;;;19.02;;
13706;SDS011;6925;47.816;13.072;2023-01-23T15:57:15;38.00;;;18.70;;
13706;SDS011;6925;47.816;13.072;2023-01-23T15:59:42;39.78;;;18.48;;
13706;SDS011;6925;47.816;13.072;2023-01-23T16:02:13;44.13;;;21.33;;
13706;SDS011;6925;47.816;13.072;2023-01-23T16:04:42;43.90;;;20.13;;
13706;SDS011;6925;47.816;13.072;2023-01-23T16:07:15;41.53;;;19.80;;
13706;SDS011;6925;47.816;13.072;2023-01-23T16:09:49;40.72;;;20.63;;
13706;SDS011;6925;47.816;13.072;2023-01-23T16:12:19;41.53;;;20.60;;
13706;SDS011;6925;47.816;13.072;2023-01-23T16:14:52;48.42;;;21.25;;
13706;SDS011;6925;47.816;13.072;2023-01-23T16:17:19;42.95;;;19.55;;
13706;SDS011;6925;47.816;13.072;2023-01-23T16:19:46;36.47;;;18.10;;
13706;SDS011;6925;47.816;13.072;2023-01-23T16:22:21;42.17;;;21.23;;
13706;SDS011;6925;47.816;13.072;2023-01-23T16:24:53;42.17;;;21.13;;
13706;SDS011;6925;47.816;13.072;2023-01-23T16:27:23;40.78;;;19.95;;
13706;SDS011;6925;47.816;13.072;2023-01-23T16:29:51;45.83;;;21.85;;
13706;SDS011;6925;47.816;13.072;2023-01-23T16:32:20;39.85;;;20.13;;
13706;SDS011;6925;47.816;13.072;2023-01-23T16:34:48;47.33;;;18.85;;
13706;SDS011;6925;47.816;13.072;2023-01-23T16:37:16;41.90;;;20.70;;
13706;SDS011;6925;47.816;13.072;2023-01-23T16:39:45;41.97;;;19.83;;
13706;SDS011;6925;47.816;13.072;2023-01-23T16:44:44;37.80;;;18.33;;
13706;SDS011;6925;47.816;13.072;2023-01-23T16:47:11;35.58;;;18.60;;
13706;SDS011;6925;47.816;13.072;2023-01-23T16:49:38;41.20;;;18.83;;
13706;SDS011;6925;47.816;13.072;2023-01-23T16:52:05;40.78;;;19.27;;
13706;SDS011;6925;47.816;13.072;2023-01-23T16:54:36;35.67;;;18.23;;
13706;SDS011;6925;47.816;13.072;2023-01-23T16:57:03;39.22;;;19.15;;
13706;SDS011;6925;47.816;13.072;2023-01-23T16:59:34;40.10;;;19.13;;
13706;SDS011;6925;47.816;13.072;2023-01-23T17:02:04;37.20;;;18.48;;
13706;SDS011;6925;47.816;13.072;2023-01-23T17:04:40;41.42;;;18.58;;
13706;SDS011;6925;47.816;13.072;2023-01-23T17:07:08;47.78;;;20.92;;
13706;SDS011;6925;47.816;13.072;2023-01-23T17:09:50;43.47;;;19.70;;
13706;SDS011;6925;47.816;13.072;2023-01-23T17:12:17;41.47;;;19.27;;
13706;SDS011;6925;47.816;13.072;2023-01-23T17:14:48;43.42;;;19.40;;
13706;SDS011;6925;47.816;13.072;2023-01-23T17:17:25;45.67;;;20.15;;
13706;SDS011;6925;47.816;13.072;2023-01-23T17:19:55;43.90;;;21.38;;
13706;SDS011;6925;47.816;13.072;2023-01-23T17:22:26;44.33;;;19.38;;
13706;SDS011;6925;47.816;13.072;2023-01-23T17:24:57;42.88;;;20.00;;
13706;SDS011;6925;47.816;13.072;2023-01-23T17:27:24;44.97;;;19.20;;
13706;SDS011;6925;47.816;13.072;2023-01-23T17:29:52;38.10;;;19.67;;